Bonn Hardthoehe, Germany

5:15 AM CET on March 27, 2015 (GMT +0100)
Cologne-bonn | | Change Station
CLOSE
Current Station
Airport
Location: Koeln,
Elevation: 302 ft
Nearby Weather Stations

Elev 302 ft 50.86 °N, 7.16 °E | Updated 25 minutes ago

Mostly Cloudy
Mostly Cloudy
43 °F
Feels Like 36 °F
N
13
Wind Variable Wind from West

Today
High -- | Low -- °F
--% Chance of Precip.
Yesterday
High -- | Low -- °F
Precip. -- in
6:20 AM 6:55 PM
Waxing Crescent, 48% visible
Pressure 29.89 in
Visibility 6.2 miles
Clouds Few 3000 ft
Mostly Cloudy 3800 ft
Windchill 36 °F
Dew Point 36 °F
Humidity 76%
Rainfall 0.00 in
Snow Depth Not available.
UV 0 out of 12
Pollen Not available.
Air Quality Not available.
Flu Activity Not available.
METAR EDDK 270350Z 26011KT 9999 FEW030 BKN038 06/02 Q1012 NOSIG

More Conditions Fewer Conditions

Pressure 29.89 in
Visibility 6.2 miles
Clouds Few 3000 ft
Mostly Cloudy 3800 ft
Windchill 36 °F
Dew Point 36 °F
Humidity 76%
Rainfall 0.00 in
Snow Depth Not available.
UV 0 out of 12
Pollen Not available.
Air Quality Not available.
Flu Activity Not available.
METAR EDDK 270350Z 26011KT 9999 FEW030 BKN038 06/02 Q1012 NOSIG

More Conditions Fewer Conditions

10-Day Weather Forecast

Almanac

Astronomy

Mar. 27, 2015 Rise Set
Actual Time
Civil Twilight
Nautical Twilight
Astronomical Twilight
Moon
Length of Visible Light
Length of Day
Tomorrow will be .
, % of the Moon is Illuminated

Today's Extremes

Country Highs Country Lows

Community

WunderPhotos

Upload Photos

1,808,706 photos uploaded!

WunderBlogs® & News

Nearby

Air Quality

  Air Quality AQ Index Pollutant
Not available.

Snow Depth

Station Depth Elevation

Earthquake Activity

City Distance Mag. Time & Date
Minimum magnitude displayed is 2.5.

Coastal Water Temperatures

Place Temperature

Stations

Nearby Weather Stations

Station Location Temp. Windchill Dew Point Humidity Wind Precip. Elev Updated Type